createdAt,value
2019-06-01T00:00:37.954Z,1016.92
2019-06-01T00:01:38.256Z,1016.91
2019-06-01T00:02:38.587Z,1016.88
2019-06-01T00:03:38.197Z,1016.89
2019-06-01T00:04:38.663Z,1016.91
2019-06-01T00:05:38.449Z,1016.88
2019-06-01T00:06:38.624Z,1016.89
2019-06-01T00:07:38.650Z,1016.92
2019-06-01T00:08:39.777Z,1016.89
2019-06-01T00:09:37.448Z,1016.88
2019-06-01T00:10:37.448Z,1016.87
2019-06-01T00:11:37.438Z,1016.86
2019-06-01T00:12:37.430Z,1016.92
2019-06-01T00:13:37.443Z,1016.91
2019-06-01T00:14:37.408Z,1016.85
2019-06-01T00:15:37.388Z,1016.89
2019-06-01T00:16:37.374Z,1016.92
2019-06-01T00:17:37.362Z,1016.89
2019-06-01T00:18:37.371Z,1016.85
2019-06-01T00:19:37.386Z,1016.87
2019-06-01T00:20:37.327Z,1016.86
2019-06-01T00:21:37.320Z,1016.89
2019-06-01T00:22:37.307Z,1016.86
2019-06-01T00:23:37.293Z,1016.89
2019-06-01T00:24:45.891Z,1016.84
2019-06-01T00:25:37.307Z,1016.87
2019-06-01T00:26:37.291Z,1016.86
2019-06-01T00:27:37.250Z,1016.83
2019-06-01T00:28:37.239Z,1016.86
2019-06-01T00:29:37.228Z,1016.84
2019-06-01T00:30:37.253Z,1016.81
2019-06-01T00:31:37.207Z,1016.85
2019-06-01T00:32:37.199Z,1016.79
2019-06-01T00:33:37.187Z,1016.83
2019-06-01T00:34:37.197Z,1016.83
2019-06-01T00:35:37.164Z,1016.83
2019-06-01T00:36:37.155Z,1016.80
2019-06-01T00:37:37.144Z,1016.81
2019-06-01T00:38:37.134Z,1016.84
2019-06-01T00:39:37.162Z,1016.81
2019-06-01T00:40:37.108Z,1016.79
2019-06-01T00:41:37.137Z,1016.80
2019-06-01T00:42:37.087Z,1016.76
2019-06-01T00:43:37.075Z,1016.78
2019-06-01T00:44:37.065Z,1016.76
2019-06-01T00:45:37.089Z,1016.76
2019-06-01T00:46:37.044Z,1016.78
2019-06-01T00:47:37.033Z,1016.77
2019-06-01T00:48:37.043Z,1016.73
2019-06-01T00:49:37.049Z,1016.75
2019-06-01T00:50:37.014Z,1016.74
2019-06-01T00:51:36.992Z,1016.77
2019-06-01T00:52:36.984Z,1016.78
2019-06-01T00:53:36.969Z,1016.74
2019-06-01T00:54:36.958Z,1016.75
2019-06-01T00:55:36.978Z,1016.77
2019-06-01T00:56:36.935Z,1016.74
2019-06-01T00:57:36.935Z,1016.74
2019-06-01T00:58:36.910Z,1016.76
2019-06-01T00:59:36.901Z,1016.74
2019-06-01T01:00:43.636Z,1016.78
2019-06-01T01:01:37.877Z,1016.76
2019-06-01T01:02:36.869Z,1016.75
2019-06-01T01:03:36.861Z,1016.79
2019-06-01T01:04:36.878Z,1016.77
2019-06-01T01:05:36.835Z,1016.76
2019-06-01T01:06:36.833Z,1016.78
2019-06-01T01:07:38.318Z,1016.74
2019-06-01T01:08:36.803Z,1016.80
2019-06-01T01:09:36.793Z,1016.78
2019-06-01T01:10:36.805Z,1016.77
2019-06-01T01:11:36.803Z,1016.77
2019-06-01T01:12:36.761Z,1016.77
2019-06-01T01:13:36.751Z,1016.77
2019-06-01T01:14:36.735Z,1016.80
2019-06-01T01:15:36.726Z,1016.76
2019-06-01T01:16:36.763Z,1016.80
2019-06-01T01:17:36.717Z,1016.75
2019-06-01T01:18:36.693Z,1016.77
2019-06-01T01:19:36.688Z,1016.77
2019-06-01T01:20:36.669Z,1016.77
2019-06-01T01:21:36.714Z,1016.80
2019-06-01T01:22:36.651Z,1016.80
2019-06-01T01:23:36.638Z,1016.79
2019-06-01T01:24:36.627Z,1016.78
2019-06-01T01:25:36.616Z,1016.75
2019-06-01T01:26:36.722Z,1016.80
2019-06-01T01:27:36.600Z,1016.78
2019-06-01T01:28:36.588Z,1016.75
2019-06-01T01:29:36.574Z,1016.79
2019-06-01T01:30:36.563Z,1016.74
2019-06-01T01:31:36.577Z,1016.73
2019-06-01T01:32:36.579Z,1016.74
2019-06-01T01:33:36.530Z,1016.72
2019-06-01T01:34:36.518Z,1016.70
2019-06-01T01:35:36.508Z,1016.71
2019-06-01T01:36:36.501Z,1016.71
2019-06-01T01:37:36.488Z,1016.68
2019-06-01T01:38:36.541Z,1016.67
2019-06-01T01:39:36.518Z,1016.71
2019-06-01T01:40:36.451Z,1016.68
2019-06-01T01:41:36.445Z,1016.69
2019-06-01T01:42:36.436Z,1016.69
2019-06-01T01:43:36.456Z,1016.70
2019-06-01T01:44:36.409Z,1016.69
2019-06-01T01:45:36.399Z,1016.66
2019-06-01T01:46:36.387Z,1016.67
2019-06-01T01:47:36.413Z,1016.64
2019-06-01T01:48:36.368Z,1016.65
2019-06-01T01:49:36.397Z,1016.62
2019-06-01T01:50:36.352Z,1016.60
2019-06-01T01:51:36.332Z,1016.61
2019-06-01T01:52:36.360Z,1016.62
2019-06-01T01:53:36.313Z,1016.61
2019-06-01T01:54:36.298Z,1016.57
2019-06-01T01:55:36.311Z,1016.61
2019-06-01T01:56:36.280Z,1016.59
2019-06-01T01:57:36.291Z,1016.59
2019-06-01T01:58:36.257Z,1016.61
2019-06-01T01:59:36.250Z,1016.60
2019-06-01T02:00:36.235Z,1016.60
2019-06-01T02:01:36.226Z,1016.59
2019-06-01T02:02:36.280Z,1016.61
2019-06-01T02:03:36.204Z,1016.60
2019-06-01T02:04:36.191Z,1016.57
2019-06-01T02:05:36.184Z,1016.55
2019-06-01T02:06:36.169Z,1016.55
2019-06-01T02:07:36.193Z,1016.55
2019-06-01T02:08:36.146Z,1016.52
2019-06-01T02:09:36.136Z,1016.51
2019-06-01T02:10:36.126Z,1016.55
2019-06-01T02:11:36.115Z,1016.56
2019-06-01T02:12:36.141Z,1016.52
2019-06-01T02:13:36.090Z,1016.51
2019-06-01T02:14:36.081Z,1016.50
2019-06-01T02:15:36.075Z,1016.47
2019-06-01T02:16:36.065Z,1016.46
2019-06-01T02:17:36.087Z,1016.49
2019-06-01T02:18:36.036Z,1016.48
2019-06-01T02:19:36.669Z,1016.45
2019-06-01T02:20:36.014Z,1016.49
2019-06-01T02:21:36.037Z,1016.45
2019-06-01T02:22:35.995Z,1016.42
2019-06-01T02:23:35.981Z,1016.44
2019-06-01T02:24:35.973Z,1016.48
2019-06-01T02:25:35.960Z,1016.44
2019-06-01T02:26:36.008Z,1016.46
2019-06-01T02:27:35.935Z,1016.49
2019-06-01T02:28:35.924Z,1016.44
2019-06-01T02:29:35.933Z,1016.42
2019-06-01T02:30:35.915Z,1016.43
2019-06-01T02:31:41.499Z,1016.44
2019-06-01T02:32:36.880Z,1016.42
2019-06-01T02:33:35.875Z,1016.41
2019-06-01T02:34:35.858Z,1016.37
2019-06-01T02:35:35.850Z,1016.36
2019-06-01T02:36:35.840Z,1016.38
2019-06-01T02:37:35.865Z,1016.36
2019-06-01T02:38:35.845Z,1016.29
2019-06-01T02:39:35.806Z,1016.32
2019-06-01T02:40:35.795Z,1016.30
2019-06-01T02:41:35.782Z,1016.29
2019-06-01T02:42:35.789Z,1016.28
2019-06-01T02:43:35.821Z,1016.30
2019-06-01T02:44:35.750Z,1016.28
2019-06-01T02:45:35.748Z,1016.31
2019-06-01T02:46:36.281Z,1016.31
2019-06-01T02:47:35.714Z,1016.28
2019-06-01T02:48:35.741Z,1016.33
2019-06-01T02:49:35.717Z,1016.37
2019-06-01T02:50:35.681Z,1016.31
2019-06-01T02:51:35.669Z,1016.38
2019-06-01T02:52:35.664Z,1016.36
2019-06-01T02:53:35.651Z,1016.41
2019-06-01T02:54:35.672Z,1016.38
2019-06-01T02:55:35.656Z,1016.39
2019-06-01T02:56:35.639Z,1016.38
2019-06-01T02:57:35.605Z,1016.39
2019-06-01T02:58:35.611Z,1016.34
2019-06-01T02:59:35.584Z,1016.36
2019-06-01T03:00:35.607Z,1016.37
2019-06-01T03:01:35.561Z,1016.36
2019-06-01T03:02:35.548Z,1016.34
2019-06-01T03:03:35.540Z,1016.39
2019-06-01T03:04:35.526Z,1016.35
2019-06-01T03:05:35.534Z,1016.35
2019-06-01T03:06:35.529Z,1016.37
2019-06-01T03:07:35.494Z,1016.37
2019-06-01T03:08:35.484Z,1016.33
2019-06-01T03:09:35.508Z,1016.36
2019-06-01T03:10:35.464Z,1016.39
2019-06-01T03:11:35.454Z,1016.39
2019-06-01T03:12:35.972Z,1016.42
2019-06-01T03:13:35.429Z,1016.42
2019-06-01T03:14:35.454Z,1016.46
2019-06-01T03:15:35.415Z,1016.42
2019-06-01T03:16:35.434Z,1016.39
2019-06-01T03:17:35.429Z,1016.40
2019-06-01T03:18:35.375Z,1016.37
2019-06-01T03:19:35.364Z,1016.34
2019-06-01T03:20:35.353Z,1016.33
2019-06-01T03:21:35.352Z,1016.38
2019-06-01T03:22:35.367Z,1016.33
2019-06-01T03:23:35.323Z,1016.33
2019-06-01T03:24:35.308Z,1016.31
2019-06-01T03:25:35.318Z,1016.36
2019-06-01T03:26:35.286Z,1016.36
2019-06-01T03:27:35.310Z,1016.30
2019-06-01T03:28:35.267Z,1016.26
2019-06-01T03:29:35.261Z,1016.27
2019-06-01T03:30:35.242Z,1016.27
2019-06-01T03:31:35.235Z,1016.29
2019-06-01T03:32:37.403Z,1016.29
2019-06-01T03:33:35.209Z,1016.25
2019-06-01T03:34:35.198Z,1016.25
2019-06-01T03:35:35.187Z,1016.26
2019-06-01T03:36:35.184Z,1016.26
2019-06-01T03:37:35.210Z,1016.23
2019-06-01T03:38:35.156Z,1016.27
2019-06-01T03:39:35.143Z,1016.29
2019-06-01T03:40:35.136Z,1016.25
2019-06-01T03:41:35.122Z,1016.25
2019-06-01T03:42:35.110Z,1016.28
2019-06-01T03:43:35.135Z,1016.22
2019-06-01T03:44:35.089Z,1016.25
2019-06-01T03:45:35.079Z,1016.25
2019-06-01T03:46:35.065Z,1016.28
2019-06-01T03:47:35.055Z,1016.28
2019-06-01T03:48:35.090Z,1016.31
2019-06-01T03:49:35.033Z,1016.36
2019-06-01T03:50:35.057Z,1016.33
2019-06-01T03:51:35.007Z,1016.38
2019-06-01T03:52:35.036Z,1016.34
2019-06-01T03:53:35.024Z,1016.38
2019-06-01T03:54:34.978Z,1016.29
2019-06-01T03:55:34.966Z,1016.31
2019-06-01T03:56:34.957Z,1016.31
2019-06-01T03:57:34.950Z,1016.34
2019-06-01T03:58:34.937Z,1016.31
2019-06-01T03:59:34.963Z,1016.33
2019-06-01T04:00:34.911Z,1016.35
2019-06-01T04:01:34.925Z,1016.38
2019-06-01T04:02:34.926Z,1016.36
2019-06-01T04:03:34.877Z,1016.37
2019-06-01T04:04:34.870Z,1016.34
2019-06-01T04:05:34.855Z,1016.37
2019-06-01T04:06:34.847Z,1016.38
2019-06-01T04:07:34.871Z,1016.33
2019-06-01T04:08:34.824Z,1016.32
2019-06-01T04:09:34.813Z,1016.35
2019-06-01T04:10:34.805Z,1016.34
2019-06-01T04:11:34.827Z,1016.35
2019-06-01T04:12:34.778Z,1016.35
2019-06-01T04:13:34.773Z,1016.39
2019-06-01T04:14:34.756Z,1016.37
2019-06-01T04:15:34.783Z,1016.39
2019-06-01T04:16:34.741Z,1016.42
2019-06-01T04:17:34.723Z,1016.42
2019-06-01T04:18:34.717Z,1016.45
2019-06-01T04:19:34.699Z,1016.45
2019-06-01T04:20:34.728Z,1016.45
2019-06-01T04:21:34.676Z,1016.44
2019-06-01T04:22:34.670Z,1016.43
2019-06-01T04:23:36.415Z,1016.43
2019-06-01T04:24:34.647Z,1016.44
2019-06-01T04:25:34.656Z,1016.43
2019-06-01T04:26:34.668Z,1016.45
2019-06-01T04:27:34.612Z,1016.44
2019-06-01T04:28:34.604Z,1016.48
2019-06-01T04:29:34.591Z,1016.51
2019-06-01T04:30:34.577Z,1016.50
2019-06-01T04:31:34.608Z,1016.47
2019-06-01T04:32:48.857Z,1016.48
2019-06-01T04:33:35.545Z,1016.46
2019-06-01T04:34:35.781Z,1016.47
2019-06-01T04:35:34.523Z,1016.48
2019-06-01T04:36:34.516Z,1016.47
2019-06-01T04:37:34.536Z,1016.47
2019-06-01T04:38:34.497Z,1016.47
2019-06-01T04:39:34.482Z,1016.45
2019-06-01T04:40:34.474Z,1016.47
2019-06-01T04:41:34.461Z,1016.49
2019-06-01T04:42:34.484Z,1016.48
2019-06-01T04:43:34.438Z,1016.49
2019-06-01T04:44:34.424Z,1016.48
2019-06-01T04:45:34.448Z,1016.49
2019-06-01T04:46:34.406Z,1016.50
2019-06-01T04:47:34.416Z,1016.51
2019-06-01T04:48:34.383Z,1016.57
2019-06-01T04:49:34.375Z,1016.53
2019-06-01T04:50:34.361Z,1016.53
2019-06-01T04:51:34.440Z,1016.57
2019-06-01T04:52:34.337Z,1016.56
2019-06-01T04:53:34.359Z,1016.58
2019-06-01T04:54:34.319Z,1016.54
2019-06-01T04:55:34.302Z,1016.58
2019-06-01T04:56:34.296Z,1016.63
2019-06-01T04:57:34.302Z,1016.62
2019-06-01T04:58:34.312Z,1016.63
2019-06-01T04:59:37.221Z,1016.64
2019-06-01T05:00:34.248Z,1016.65
2019-06-01T05:01:34.235Z,1016.66
2019-06-01T05:02:34.229Z,1016.60
2019-06-01T05:03:34.259Z,1016.69
2019-06-01T05:04:34.215Z,1016.71
2019-06-01T05:05:34.197Z,1016.64
2019-06-01T05:06:34.183Z,1016.64
2019-06-01T05:07:34.178Z,1016.66
2019-06-01T05:08:34.229Z,1016.67
2019-06-01T05:09:34.153Z,1016.65
2019-06-01T05:10:34.138Z,1016.63
2019-06-01T05:11:34.129Z,1016.65
2019-06-01T05:12:34.116Z,1016.65
2019-06-01T05:13:34.106Z,1016.69
2019-06-01T05:14:34.149Z,1016.69
2019-06-01T05:15:34.084Z,1016.67
2019-06-01T05:16:34.073Z,1016.69
2019-06-01T05:17:34.063Z,1016.68
2019-06-01T05:18:34.053Z,1016.72
2019-06-01T05:19:34.101Z,1016.74
2019-06-01T05:20:34.029Z,1016.69
2019-06-01T05:21:34.018Z,1016.71
2019-06-01T05:22:34.037Z,1016.70
2019-06-01T05:23:33.995Z,1016.75
2019-06-01T05:24:33.989Z,1016.77
2019-06-01T05:25:34.011Z,1016.76
2019-06-01T05:26:33.967Z,1016.72
2019-06-01T05:27:33.952Z,1016.73
2019-06-01T05:28:33.947Z,1016.68
2019-06-01T05:29:33.929Z,1016.68
2019-06-01T05:30:33.941Z,1016.73
2019-06-01T05:31:33.908Z,1016.70
2019-06-01T05:32:33.899Z,1016.70
2019-06-01T05:33:37.603Z,1016.73
2019-06-01T05:34:33.876Z,1016.77
2019-06-01T05:35:33.902Z,1016.73
2019-06-01T05:36:33.856Z,1016.75
2019-06-01T05:37:33.844Z,1016.73
2019-06-01T05:38:33.842Z,1016.72
2019-06-01T05:39:33.822Z,1016.74
2019-06-01T05:40:33.818Z,1016.69
2019-06-01T05:41:33.847Z,1016.74
2019-06-01T05:42:33.797Z,1016.74
2019-06-01T05:43:33.775Z,1016.72
2019-06-01T05:44:33.787Z,1016.71
2019-06-01T05:45:33.778Z,1016.74
2019-06-01T05:46:33.776Z,1016.77
2019-06-01T05:47:33.735Z,1016.76
2019-06-01T05:48:33.729Z,1016.72
2019-06-01T05:49:33.712Z,1016.72
2019-06-01T05:50:33.705Z,1016.72
2019-06-01T05:51:33.690Z,1016.71
2019-06-01T05:52:33.700Z,1016.72
2019-06-01T05:53:33.666Z,1016.74
2019-06-01T05:54:33.662Z,1016.77
2019-06-01T05:55:33.651Z,1016.74
2019-06-01T05:56:33.635Z,1016.75
2019-06-01T05:57:33.648Z,1016.77
2019-06-01T05:58:33.624Z,1016.79
2019-06-01T05:59:33.602Z,1016.77
2019-06-01T06:00:33.594Z,1016.79
2019-06-01T06:01:33.592Z,1016.76
2019-06-01T06:02:33.611Z,1016.83
2019-06-01T06:03:40.402Z,1016.81
2019-06-01T06:04:34.544Z,1016.77
2019-06-01T06:05:33.537Z,1016.75
2019-06-01T06:06:33.538Z,1016.80
2019-06-01T06:07:33.517Z,1016.80
2019-06-01T06:08:33.535Z,1016.78
2019-06-01T06:09:33.496Z,1016.80
2019-06-01T06:10:33.488Z,1016.81
2019-06-01T06:11:33.474Z,1016.86
2019-06-01T06:12:33.461Z,1016.80
2019-06-01T06:13:33.454Z,1016.82
2019-06-01T06:14:33.482Z,1016.83
2019-06-01T06:15:33.431Z,1016.80
2019-06-01T06:16:33.469Z,1016.82
2019-06-01T06:17:33.411Z,1016.80
2019-06-01T06:18:33.399Z,1016.83
2019-06-01T06:19:33.425Z,1016.87
2019-06-01T06:20:33.394Z,1016.87
2019-06-01T06:21:33.366Z,1016.83
2019-06-01T06:22:33.354Z,1016.83
2019-06-01T06:23:33.350Z,1016.81
2019-06-01T06:24:41.448Z,1016.81
2019-06-01T06:25:35.626Z,1016.87
2019-06-01T06:26:33.313Z,1016.86
2019-06-01T06:27:33.308Z,1016.85
2019-06-01T06:28:33.292Z,1016.84
2019-06-01T06:29:33.319Z,1016.84
2019-06-01T06:30:33.271Z,1016.83
2019-06-01T06:31:33.270Z,1016.81
2019-06-01T06:32:33.249Z,1016.82
2019-06-01T06:33:36.682Z,1016.82
2019-06-01T06:34:33.248Z,1016.83
2019-06-01T06:35:33.217Z,1016.81
2019-06-01T06:36:33.204Z,1016.84
2019-06-01T06:37:34.522Z,1016.88
2019-06-01T06:38:34.032Z,1016.81
2019-06-01T06:39:33.234Z,1016.82
2019-06-01T06:40:33.164Z,1016.87
2019-06-01T06:41:33.153Z,1016.88
2019-06-01T06:42:33.145Z,1016.90
2019-06-01T06:43:33.493Z,1016.92
2019-06-01T06:44:33.173Z,1016.96
2019-06-01T06:45:33.123Z,1016.83
2019-06-01T06:46:33.111Z,1016.81
2019-06-01T06:47:33.090Z,1016.86
2019-06-01T06:48:33.131Z,1016.88
2019-06-01T06:49:33.067Z,1016.88
2019-06-01T06:50:33.058Z,1016.88
2019-06-01T06:51:33.047Z,1016.89
2019-06-01T06:52:33.037Z,1016.94
2019-06-01T06:53:35.201Z,1016.93
2019-06-01T06:54:33.075Z,1016.92
2019-06-01T06:55:32.999Z,1016.90
2019-06-01T06:56:32.992Z,1016.86
2019-06-01T06:57:32.983Z,1016.88
2019-06-01T06:58:33.010Z,1016.87
2019-06-01T06:59:32.957Z,1016.90
2019-06-01T07:00:32.981Z,1016.84
2019-06-01T07:01:32.945Z,1016.86
2019-06-01T07:02:32.924Z,1016.87
2019-06-01T07:03:32.912Z,1016.88
2019-06-01T07:04:33.006Z,1016.92
2019-06-01T07:05:32.899Z,1016.92
2019-06-01T07:06:32.880Z,1016.88
2019-06-01T07:07:32.868Z,1016.87
2019-06-01T07:08:32.886Z,1016.93
2019-06-01T07:09:32.850Z,1016.85
2019-06-01T07:10:32.857Z,1016.90
2019-06-01T07:11:32.828Z,1016.89
2019-06-01T07:12:32.830Z,1016.85
2019-06-01T07:13:32.818Z,1016.86
2019-06-01T07:14:32.852Z,1016.83
2019-06-01T07:15:32.826Z,1016.81
2019-06-01T07:16:32.773Z,1016.80
2019-06-01T07:17:32.785Z,1016.84
2019-06-01T07:18:32.759Z,1016.88
2019-06-01T07:19:32.802Z,1016.87
2019-06-01T07:20:32.739Z,1016.86
2019-06-01T07:21:32.719Z,1016.82
2019-06-01T07:22:32.710Z,1016.84
2019-06-01T07:23:32.707Z,1016.89
2019-06-01T07:24:32.690Z,1016.81
2019-06-01T07:25:33.019Z,1016.85
2019-06-01T07:26:32.729Z,1016.90
2019-06-01T07:27:32.659Z,1016.82
2019-06-01T07:28:32.642Z,1016.86
2019-06-01T07:29:32.651Z,1016.85
2019-06-01T07:30:49.462Z,1016.91
2019-06-01T07:31:33.664Z,1017.01
2019-06-01T07:32:32.921Z,1017.21
2019-06-01T07:33:32.778Z,1017.05
2019-06-01T07:34:41.249Z,1017.06
2019-06-01T07:35:33.575Z,1017.12
2019-06-01T07:36:32.824Z,1017.20
2019-06-01T07:37:32.776Z,1017.30
2019-06-01T07:38:33.242Z,1017.17
2019-06-01T07:39:33.518Z,1017.23
2019-06-01T07:40:32.998Z,1017.23
2019-06-01T07:41:33.081Z,1017.32
2019-06-01T07:42:33.199Z,1017.25
2019-06-01T07:43:33.258Z,1017.36
2019-06-01T07:44:33.407Z,1017.33
2019-06-01T07:45:35.368Z,1016.93
2019-06-01T07:46:33.229Z,1017.44
2019-06-01T07:47:33.995Z,1016.97
2019-06-01T07:48:33.460Z,1016.96
2019-06-01T07:49:32.421Z,1017.46
2019-06-01T07:50:32.466Z,1017.42
2019-06-01T07:51:32.401Z,1017.17
2019-06-01T07:52:32.482Z,1017.50
2019-06-01T07:53:32.384Z,1017.46
2019-06-01T07:54:32.720Z,1017.55
2019-06-01T07:55:32.415Z,1017.10
2019-06-01T07:56:32.854Z,1017.36
2019-06-01T07:57:32.342Z,1017.51
2019-06-01T07:58:32.927Z,1017.58
2019-06-01T07:59:32.607Z,1017.34
2019-06-01T08:00:33.170Z,1017.55
2019-06-01T08:01:32.898Z,1017.58
2019-06-01T08:02:33.115Z,1017.50
2019-06-01T08:03:34.838Z,1017.51
2019-06-01T08:04:51.898Z,1017.65
2019-06-01T08:05:33.318Z,1017.58
2019-06-01T08:06:32.848Z,1017.65
2019-06-01T08:07:32.246Z,1017.56
2019-06-01T08:08:32.289Z,1017.60
2019-06-01T08:09:32.233Z,1017.23
2019-06-01T08:10:32.269Z,1017.66
2019-06-01T08:11:34.645Z,1017.61
2019-06-01T08:12:32.202Z,1017.66
2019-06-01T08:13:35.341Z,1017.62
2019-06-01T08:14:32.845Z,1017.64
2019-06-01T08:15:32.242Z,1017.66
2019-06-01T08:16:32.175Z,1017.71
2019-06-01T08:17:32.279Z,1017.44
2019-06-01T08:18:32.334Z,1017.75
2019-06-01T08:19:32.131Z,1017.73
2019-06-01T08:20:32.319Z,1017.68
2019-06-01T08:21:32.425Z,1017.63
2019-06-01T08:22:32.197Z,1017.68
2019-06-01T08:23:32.507Z,1017.70
2019-06-01T08:24:32.422Z,1017.64
2019-06-01T08:25:32.774Z,1017.60
2019-06-01T08:26:32.699Z,1017.63
2019-06-01T08:27:32.644Z,1017.58
2019-06-01T08:28:32.741Z,1017.67
2019-06-01T08:29:32.854Z,1017.60
2019-06-01T08:30:32.705Z,1017.54
2019-06-01T08:31:33.538Z,1017.53
2019-06-01T08:32:32.877Z,1017.53
2019-06-01T08:33:34.649Z,1017.49
2019-06-01T08:34:33.136Z,1017.57
2019-06-01T08:35:33.011Z,1017.36
2019-06-01T08:36:33.750Z,1017.16
2019-06-01T08:37:32.037Z,1017.36
2019-06-01T08:38:32.024Z,1017.44
2019-06-01T08:39:31.951Z,1017.48
2019-06-01T08:40:31.941Z,1017.38
2019-06-01T08:41:31.932Z,1017.40
2019-06-01T08:42:32.027Z,1017.39
2019-06-01T08:43:31.917Z,1017.33
2019-06-01T08:44:31.951Z,1017.38
2019-06-01T08:45:36.099Z,1017.47
2019-06-01T08:46:33.985Z,1017.52
2019-06-01T08:47:32.039Z,1017.47
2019-06-01T08:48:32.050Z,1017.48
2019-06-01T08:49:32.464Z,1017.43
2019-06-01T08:50:32.059Z,1017.17
2019-06-01T08:51:32.119Z,1017.34
2019-06-01T08:52:32.237Z,1017.31
2019-06-01T08:53:32.319Z,1017.17
2019-06-01T08:54:32.306Z,1016.97
2019-06-01T08:55:32.297Z,1017.31
2019-06-01T08:56:32.314Z,1017.41
2019-06-01T08:57:32.626Z,1017.52
2019-06-01T08:58:32.485Z,1017.45
2019-06-01T08:59:32.582Z,1017.30
2019-06-01T09:00:32.644Z,1017.24
2019-06-01T09:01:32.748Z,1017.26
2019-06-01T09:02:32.783Z,1016.86
2019-06-01T09:03:31.956Z,1016.80
2019-06-01T09:04:32.739Z,1017.04
2019-06-01T09:05:33.014Z,1017.31
2019-06-01T09:06:32.839Z,1017.23
2019-06-01T09:07:31.705Z,1017.17
2019-06-01T09:08:33.147Z,1017.10
2019-06-01T09:09:31.682Z,1016.86
2019-06-01T09:10:31.672Z,1017.36
2019-06-01T09:11:31.659Z,1017.21
2019-06-01T09:12:31.652Z,1017.21
2019-06-01T09:13:31.674Z,1017.33
2019-06-01T09:14:31.636Z,1017.23
2019-06-01T09:15:31.624Z,1017.17
2019-06-01T09:16:31.684Z,1017.13
2019-06-01T09:17:31.673Z,1017.17
2019-06-01T09:18:31.628Z,1017.19
2019-06-01T09:19:31.659Z,1017.20
2019-06-01T09:20:35.329Z,1017.15
2019-06-01T09:21:33.568Z,1017.21
2019-06-01T09:22:31.664Z,1017.17
2019-06-01T09:23:31.692Z,1017.11
2019-06-01T09:24:31.921Z,1017.22
2019-06-01T09:25:31.798Z,1017.26
2019-06-01T09:26:32.012Z,1017.29
2019-06-01T09:27:32.010Z,1016.62
2019-06-01T09:28:31.919Z,1016.55
2019-06-01T09:29:32.118Z,1016.68
2019-06-01T09:30:32.093Z,1017.28
2019-06-01T09:31:32.412Z,1017.27
2019-06-01T09:32:32.203Z,1017.32
2019-06-01T09:33:32.231Z,1017.25
2019-06-01T09:34:32.425Z,1017.27
2019-06-01T09:35:50.134Z,1017.15
2019-06-01T09:36:32.568Z,1017.13
2019-06-01T09:37:32.478Z,1017.26
2019-06-01T09:38:31.681Z,1017.22
2019-06-01T09:39:31.491Z,1017.20
2019-06-01T09:40:32.214Z,1017.17
2019-06-01T09:41:32.503Z,1017.30
2019-06-01T09:42:33.255Z,1017.20
2019-06-01T09:43:31.402Z,1017.20
2019-06-01T09:44:31.936Z,1016.74
2019-06-01T09:45:32.826Z,1017.20
2019-06-01T09:46:32.274Z,1017.07
2019-06-01T09:47:31.352Z,1017.04
2019-06-01T09:48:31.502Z,1017.13
2019-06-01T09:49:32.605Z,1017.17
2019-06-01T09:50:31.416Z,1017.16
2019-06-01T09:51:31.469Z,1017.18
2019-06-01T09:52:31.412Z,1017.17
2019-06-01T09:53:32.532Z,1016.98
2019-06-01T09:54:32.706Z,1017.11
2019-06-01T09:55:32.606Z,1017.06
2019-06-01T09:56:33.486Z,1017.17
2019-06-01T09:57:31.987Z,1017.20
2019-06-01T09:58:32.235Z,1017.28
2019-06-01T09:59:31.945Z,1017.30
2019-06-01T10:00:32.356Z,1017.24
2019-06-01T10:01:32.394Z,1017.33
2019-06-01T10:02:32.094Z,1017.27
2019-06-01T10:03:32.481Z,1017.40
2019-06-01T10:04:32.290Z,1017.36
2019-06-01T10:05:32.349Z,1017.43
2019-06-01T10:06:32.445Z,1016.57
2019-06-01T10:07:31.192Z,1016.55
2019-06-01T10:08:32.616Z,1017.36
2019-06-01T10:09:31.559Z,1017.34
2019-06-01T10:10:31.849Z,1017.33
2019-06-01T10:11:32.508Z,1017.63
2019-06-01T10:12:31.893Z,1017.48
2019-06-01T10:13:32.928Z,1017.52
2019-06-01T10:14:32.137Z,1017.44
2019-06-01T10:15:32.414Z,1017.44
2019-06-01T10:16:32.464Z,1017.36
2019-06-01T10:17:33.168Z,1017.18
2019-06-01T10:18:32.592Z,1017.30
2019-06-01T10:19:31.096Z,1017.25
2019-06-01T10:20:31.153Z,1017.26
2019-06-01T10:21:32.062Z,1017.16
2019-06-01T10:22:31.076Z,1017.09
2019-06-01T10:23:32.357Z,1017.01
2019-06-01T10:24:31.179Z,1017.00
2019-06-01T10:25:32.296Z,1017.08
2019-06-01T10:26:31.421Z,1016.98
2019-06-01T10:27:32.376Z,1016.87
2019-06-01T10:28:31.534Z,1016.97
2019-06-01T10:29:32.470Z,1016.92
2019-06-01T10:30:31.651Z,1016.66
2019-06-01T10:31:31.021Z,1016.48
2019-06-01T10:32:32.484Z,1016.35
2019-06-01T10:33:30.991Z,1016.39
2019-06-01T10:34:31.523Z,1016.29
2019-06-01T10:35:31.008Z,1016.31
2019-06-01T10:36:31.915Z,1016.26
2019-06-01T10:37:31.384Z,1016.24
2019-06-01T10:38:31.163Z,1016.23
2019-06-01T10:39:31.235Z,1016.30
2019-06-01T10:40:31.292Z,1016.25
2019-06-01T10:41:31.225Z,1016.23
2019-06-01T10:42:32.707Z,1016.13
2019-06-01T10:43:31.454Z,1016.19
2019-06-01T10:44:31.580Z,1016.13
2019-06-01T10:45:31.768Z,1016.19
2019-06-01T10:46:31.851Z,1016.21
2019-06-01T10:47:40.130Z,1016.14
2019-06-01T10:48:32.709Z,1016.13
2019-06-01T10:49:31.837Z,1016.07
2019-06-01T10:50:32.829Z,1016.03
2019-06-01T10:51:32.058Z,1016.03
2019-06-01T10:52:31.987Z,1015.98
2019-06-01T10:53:31.964Z,1016.02
2019-06-01T10:54:32.772Z,1015.99
2019-06-01T10:55:31.968Z,1016.04
2019-06-01T10:56:32.200Z,1016.04
2019-06-01T10:57:32.234Z,1016.09
2019-06-01T10:58:30.773Z,1016.17
2019-06-01T10:59:30.760Z,1016.03
2019-06-01T11:00:39.839Z,1015.99
2019-06-01T11:01:34.108Z,1015.94
2019-06-01T11:02:30.744Z,1015.91
2019-06-01T11:03:30.709Z,1015.98
2019-06-01T11:04:30.697Z,1015.91
2019-06-01T11:05:30.729Z,1015.87
2019-06-01T11:06:37.673Z,1015.87
2019-06-01T11:07:32.742Z,1015.79
2019-06-01T11:08:30.664Z,1015.78
2019-06-01T11:09:30.682Z,1015.72
2019-06-01T11:10:30.639Z,1015.68
2019-06-01T11:11:30.626Z,1015.71
2019-06-01T11:12:30.661Z,1015.76
2019-06-01T11:13:30.607Z,1015.72
2019-06-01T11:14:30.599Z,1015.77
2019-06-01T11:15:30.583Z,1015.74
2019-06-01T11:16:30.575Z,1015.74
2019-06-01T11:17:30.596Z,1015.68
2019-06-01T11:18:30.553Z,1015.74
2019-06-01T11:19:30.576Z,1015.69
2019-06-01T11:20:31.163Z,1015.71
2019-06-01T11:21:30.528Z,1015.77
2019-06-01T11:22:30.544Z,1015.71
2019-06-01T11:23:30.502Z,1015.70
2019-06-01T11:24:30.489Z,1015.72
2019-06-01T11:25:30.528Z,1015.74
2019-06-01T11:26:30.677Z,1015.76
2019-06-01T11:27:30.457Z,1015.72
2019-06-01T11:28:30.700Z,1015.65
2019-06-01T11:29:30.439Z,1015.66
2019-06-01T11:30:30.428Z,1015.68
2019-06-01T11:31:30.474Z,1015.65
2019-06-01T11:32:30.417Z,1015.68
2019-06-01T11:33:30.434Z,1015.64
2019-06-01T11:34:30.391Z,1015.59
2019-06-01T11:35:30.370Z,1015.56
2019-06-01T11:36:30.361Z,1015.57
2019-06-01T11:37:30.352Z,1015.51
2019-06-01T11:38:30.376Z,1015.47
2019-06-01T11:39:30.374Z,1015.47
2019-06-01T11:40:30.341Z,1015.52
2019-06-01T11:41:30.326Z,1015.54
2019-06-01T11:42:30.303Z,1015.50
2019-06-01T11:43:30.290Z,1015.44
2019-06-01T11:44:30.278Z,1015.43
2019-06-01T11:45:30.308Z,1015.46
2019-06-01T11:46:30.259Z,1015.44
2019-06-01T11:47:30.251Z,1015.44
2019-06-01T11:48:30.239Z,1015.43
2019-06-01T11:49:30.231Z,1015.34
2019-06-01T11:50:30.260Z,1015.35
2019-06-01T11:51:30.207Z,1015.36
2019-06-01T11:52:30.193Z,1015.34
2019-06-01T11:53:30.186Z,1015.37
2019-06-01T11:54:30.173Z,1015.30
2019-06-01T11:55:30.207Z,1015.36
2019-06-01T11:56:30.150Z,1015.35
2019-06-01T11:57:30.143Z,1015.25
2019-06-01T11:58:30.128Z,1015.30
2019-06-01T11:59:30.120Z,1015.32
2019-06-01T12:00:30.145Z,1015.32
2019-06-01T12:01:30.097Z,1015.35
2019-06-01T12:02:30.087Z,1015.27
2019-06-01T12:03:30.077Z,1015.27
2019-06-01T12:04:30.063Z,1015.25
2019-06-01T12:05:30.279Z,1015.30